sensor_id;sensor_type;location;lat;lon;timestamp;pressure;altitude;pressure_sealevel;temperature;humidity
10127;BME280;13080;42.608;23.362;2024-03-08T00:00:29;151883.63;;;3.08;100.00
10127;BME280;13080;42.608;23.362;2024-03-08T00:02:58;151933.97;;;3.28;100.00
10127;BME280;13080;42.608;23.362;2024-03-08T00:05:27;151946.88;;;3.33;100.00
10127;BME280;13080;42.608;23.362;2024-03-08T00:07:54;151912.03;;;3.20;100.00
10127;BME280;13080;42.608;23.362;2024-03-08T00:10:21;151856.50;;;2.98;100.00
10127;BME280;13080;42.608;23.362;2024-03-08T00:12:49;151886.22;;;3.09;100.00
10127;BME280;13080;42.608;23.362;2024-03-08T00:15:17;151857.78;;;2.98;100.00
10127;BME280;13080;42.608;23.362;2024-03-08T00:17:46;151848.78;;;2.95;100.00
10127;BME280;13080;42.608;23.362;2024-03-08T00:20:13;151826.81;;;2.86;100.00
10127;BME280;13080;42.608;23.362;2024-03-08T00:22:40;151865.56;;;3.01;100.00
10127;BME280;13080;42.608;23.362;2024-03-08T00:25:07;151865.56;;;3.01;100.00
10127;BME280;13080;42.608;23.362;2024-03-08T00:27:35;151847.50;;;2.94;100.00
10127;BME280;13080;42.608;23.362;2024-03-08T00:30:04;151850.06;;;2.95;100.00
10127;BME280;13080;42.608;23.362;2024-03-08T00:32:32;151865.56;;;3.01;100.00
10127;BME280;13080;42.608;23.362;2024-03-08T00:35:00;151877.16;;;3.06;100.00
10127;BME280;13080;42.608;23.362;2024-03-08T00:37:27;151881.06;;;3.07;100.00
10127;BME280;13080;42.608;23.362;2024-03-08T00:39:54;151888.78;;;3.10;100.00
10127;BME280;13080;42.608;23.362;2024-03-08T00:42:21;151851.34;;;2.96;100.00
10127;BME280;13080;42.608;23.362;2024-03-08T00:44:48;151837.16;;;2.90;100.00
10127;BME280;13080;42.608;23.362;2024-03-08T00:47:16;151843.59;;;2.92;100.00
10127;BME280;13080;42.608;23.362;2024-03-08T00:49:43;151828.09;;;2.86;100.00
10127;BME280;13080;42.608;23.362;2024-03-08T00:52:11;151813.94;;;2.81;100.00
10127;BME280;13080;42.608;23.362;2024-03-08T00:54:38;151821.66;;;2.84;100.00
10127;BME280;13080;42.608;23.362;2024-03-08T00:57:05;151820.38;;;2.83;100.00
10127;BME280;13080;42.608;23.362;2024-03-08T00:59:32;151886.22;;;3.09;100.00
10127;BME280;13080;42.608;23.362;2024-03-08T01:01:59;151870.72;;;3.03;100.00
10127;BME280;13080;42.608;23.362;2024-03-08T01:04:27;151893.97;;;3.12;100.00
10127;BME280;13080;42.608;23.362;2024-03-08T01:06:54;151882.34;;;3.08;100.00
10127;BME280;13080;42.608;23.362;2024-03-08T01:09:23;151873.28;;;3.04;100.00
10127;BME280;13080;42.608;23.362;2024-03-08T01:11:50;151883.63;;;3.08;100.00
10127;BME280;13080;42.608;23.362;2024-03-08T01:14:19;151882.34;;;3.08;100.00
10127;BME280;13080;42.608;23.362;2024-03-08T01:16:47;151834.53;;;2.89;100.00
10127;BME280;13080;42.608;23.362;2024-03-08T01:19:14;151860.38;;;2.99;100.00
10127;BME280;13080;42.608;23.362;2024-03-08T01:21:42;151852.66;;;2.96;100.00
10127;BME280;13080;42.608;23.362;2024-03-08T01:24:08;151820.38;;;2.83;100.00
10127;BME280;13080;42.608;23.362;2024-03-08T01:26:37;151825.53;;;2.85;100.00
10127;BME280;13080;42.608;23.362;2024-03-08T01:29:04;151807.47;;;2.78;100.00
10127;BME280;13080;42.608;23.362;2024-03-08T01:31:31;151800.97;;;2.76;100.00
10127;BME280;13080;42.608;23.362;2024-03-08T01:33:58;151808.75;;;2.79;100.00
10127;BME280;13080;42.608;23.362;2024-03-08T01:36:25;151800.97;;;2.76;100.00
10127;BME280;13080;42.608;23.362;2024-03-08T01:38:52;151795.88;;;2.74;100.00
10127;BME280;13080;42.608;23.362;2024-03-08T01:41:19;151789.38;;;2.71;100.00
10127;BME280;13080;42.608;23.362;2024-03-08T01:43:47;151775.19;;;2.65;100.00
10127;BME280;13080;42.608;23.362;2024-03-08T01:46:18;151775.19;;;2.65;100.00
10127;BME280;13080;42.608;23.362;2024-03-08T01:48:47;151784.19;;;2.69;100.00
10127;BME280;13080;42.608;23.362;2024-03-08T01:51:16;151817.75;;;2.82;100.00
10127;BME280;13080;42.608;23.362;2024-03-08T01:53:46;151850.06;;;2.95;100.00
10127;BME280;13080;42.608;23.362;2024-03-08T01:56:13;151804.88;;;2.77;100.00
10127;BME280;13080;42.608;23.362;2024-03-08T01:58:41;151815.22;;;2.81;100.00
10127;BME280;13080;42.608;23.362;2024-03-08T02:01:11;151807.47;;;2.78;100.00
10127;BME280;13080;42.608;23.362;2024-03-08T02:03:40;151767.47;;;2.62;100.00
10127;BME280;13080;42.608;23.362;2024-03-08T02:06:09;151767.47;;;2.62;100.00
10127;BME280;13080;42.608;23.362;2024-03-08T02:08:41;151745.53;;;2.54;100.00
10127;BME280;13080;42.608;23.362;2024-03-08T02:11:09;151708.09;;;2.39;100.00
10127;BME280;13080;42.608;23.362;2024-03-08T02:13:36;151744.19;;;2.53;100.00
10127;BME280;13080;42.608;23.362;2024-03-08T02:16:03;151710.66;;;2.40;100.00
10127;BME280;13080;42.608;23.362;2024-03-08T02:18:34;151770.03;;;2.63;100.00
10127;BME280;13080;42.608;23.362;2024-03-08T02:21:04;151741.63;;;2.52;100.00
10127;BME280;13080;42.608;23.362;2024-03-08T02:23:31;151767.47;;;2.62;100.00
10127;BME280;13080;42.608;23.362;2024-03-08T02:25:59;151748.09;;;2.55;100.00
10127;BME280;13080;42.608;23.362;2024-03-08T02:28:26;151737.75;;;2.50;100.00
10127;BME280;13080;42.608;23.362;2024-03-08T02:30:53;151715.81;;;2.42;100.00
10127;BME280;13080;42.608;23.362;2024-03-08T02:33:21;151710.66;;;2.40;100.00
10127;BME280;13080;42.608;23.362;2024-03-08T02:35:49;151708.09;;;2.39;100.00
10127;BME280;13080;42.608;23.362;2024-03-08T02:38:18;151754.53;;;2.57;100.00
10127;BME280;13080;42.608;23.362;2024-03-08T02:40:47;151760.97;;;2.60;100.00
10127;BME280;13080;42.608;23.362;2024-03-08T02:43:15;151700.38;;;2.36;100.00
10127;BME280;13080;42.608;23.362;2024-03-08T02:45:43;151724.84;;;2.45;100.00
10127;BME280;13080;42.608;23.362;2024-03-08T02:48:11;151684.88;;;2.29;100.00
10127;BME280;13080;42.608;23.362;2024-03-08T02:50:38;151671.97;;;2.24;100.00
10127;BME280;13080;42.608;23.362;2024-03-08T02:53:06;151683.59;;;2.29;100.00
10127;BME280;13080;42.608;23.362;2024-03-08T02:55:34;151733.91;;;2.49;100.00
10127;BME280;13080;42.608;23.362;2024-03-08T02:58:01;151770.03;;;2.63;100.00
10127;BME280;13080;42.608;23.362;2024-03-08T03:00:29;151762.31;;;2.60;100.00
10127;BME280;13080;42.608;23.362;2024-03-08T03:02:56;151748.09;;;2.55;100.00
10127;BME280;13080;42.608;23.362;2024-03-08T03:05:23;151705.53;;;2.38;100.00
10127;BME280;13080;42.608;23.362;2024-03-08T03:07:51;151718.41;;;2.43;100.00
10127;BME280;13080;42.608;23.362;2024-03-08T03:10:18;151726.13;;;2.46;100.00
10127;BME280;13080;42.608;23.362;2024-03-08T03:12:48;151718.41;;;2.43;100.00
10127;BME280;13080;42.608;23.362;2024-03-08T03:15:16;151692.59;;;2.33;100.00
10127;BME280;13080;42.608;23.362;2024-03-08T03:17:46;151668.09;;;2.23;100.00
10127;BME280;13080;42.608;23.362;2024-03-08T03:20:13;151634.53;;;2.10;100.00
10127;BME280;13080;42.608;23.362;2024-03-08T03:22:48;151630.66;;;2.08;100.00
10127;BME280;13080;42.608;23.362;2024-03-08T03:25:18;151637.09;;;2.11;100.00
10127;BME280;13080;42.608;23.362;2024-03-08T03:27:51;151635.81;;;2.10;100.00
10127;BME280;13080;42.608;23.362;2024-03-08T03:30:17;151624.22;;;2.05;100.00
10127;BME280;13080;42.608;23.362;2024-03-08T03:32:47;151626.81;;;2.06;100.00
10127;BME280;13080;42.608;23.362;2024-03-08T03:35:16;151630.66;;;2.08;100.00
10127;BME280;13080;42.608;23.362;2024-03-08T03:37:43;151634.53;;;2.10;100.00
10127;BME280;13080;42.608;23.362;2024-03-08T03:40:17;151643.59;;;2.13;100.00
10127;BME280;13080;42.608;23.362;2024-03-08T03:42:45;151635.81;;;2.10;100.00
10127;BME280;13080;42.608;23.362;2024-03-08T03:45:13;151632.00;;;2.08;100.00
10127;BME280;13080;42.608;23.362;2024-03-08T03:47:45;151637.09;;;2.11;100.00
10127;BME280;13080;42.608;23.362;2024-03-08T03:50:12;151638.44;;;2.11;100.00
10127;BME280;13080;42.608;23.362;2024-03-08T03:52:39;151632.00;;;2.08;100.00
10127;BME280;13080;42.608;23.362;2024-03-08T03:55:08;151650.03;;;2.16;100.00
10127;BME280;13080;42.608;23.362;2024-03-08T03:57:37;151653.88;;;2.17;100.00
10127;BME280;13080;42.608;23.362;2024-03-08T04:00:05;151647.44;;;2.15;100.00
10127;BME280;13080;42.608;23.362;2024-03-08T04:02:37;151646.16;;;2.14;100.00
10127;BME280;13080;42.608;23.362;2024-03-08T04:05:05;151664.22;;;2.21;100.00
10127;BME280;13080;42.608;23.362;2024-03-08T04:07:32;151616.50;;;2.02;100.00
10127;BME280;13080;42.608;23.362;2024-03-08T04:09:59;151591.94;;;1.93;100.00
10127;BME280;13080;42.608;23.362;2024-03-08T04:12:26;151572.63;;;1.85;100.00
10127;BME280;13080;42.608;23.362;2024-03-08T04:14:54;151568.75;;;1.83;100.00
10127;BME280;13080;42.608;23.362;2024-03-08T04:17:22;151584.22;;;1.90;100.00
10127;BME280;13080;42.608;23.362;2024-03-08T04:19:51;151577.78;;;1.87;100.00
10127;BME280;13080;42.608;23.362;2024-03-08T04:22:18;151576.50;;;1.86;100.00
10127;BME280;13080;42.608;23.362;2024-03-08T04:24:45;151548.13;;;1.75;100.00
10127;BME280;13080;42.608;23.362;2024-03-08T04:27:12;151564.91;;;1.82;100.00
10127;BME280;13080;42.608;23.362;2024-03-08T04:29:39;151576.50;;;1.86;100.00
10127;BME280;13080;42.608;23.362;2024-03-08T04:32:07;151575.19;;;1.86;100.00
10127;BME280;13080;42.608;23.362;2024-03-08T04:34:34;151588.13;;;1.91;100.00
10127;BME280;13080;42.608;23.362;2024-03-08T04:37:03;151591.94;;;1.93;100.00
10127;BME280;13080;42.608;23.362;2024-03-08T04:39:30;151590.69;;;1.92;100.00
10127;BME280;13080;42.608;23.362;2024-03-08T04:42:00;151607.44;;;1.99;100.00
10127;BME280;13080;42.608;23.362;2024-03-08T04:44:28;151625.50;;;2.06;100.00
10127;BME280;13080;42.608;23.362;2024-03-08T04:46:55;151604.88;;;1.98;100.00
10127;BME280;13080;42.608;23.362;2024-03-08T04:49:22;151637.09;;;2.11;100.00
10127;BME280;13080;42.608;23.362;2024-03-08T04:51:49;151625.50;;;2.06;100.00
10127;BME280;13080;42.608;23.362;2024-03-08T04:54:18;151639.72;;;2.12;100.00
10127;BME280;13080;42.608;23.362;2024-03-08T04:56:44;151607.44;;;1.99;100.00
10127;BME280;13080;42.608;23.362;2024-03-08T04:59:11;151647.44;;;2.15;100.00
10127;BME280;13080;42.608;23.362;2024-03-08T05:01:39;151639.72;;;2.12;100.00
10127;BME280;13080;42.608;23.362;2024-03-08T05:04:07;151659.03;;;2.19;100.00
10127;BME280;13080;42.608;23.362;2024-03-08T05:06:34;151622.94;;;2.05;100.00
10127;BME280;13080;42.608;23.362;2024-03-08T05:09:01;151585.50;;;1.90;100.00
10127;BME280;13080;42.608;23.362;2024-03-08T05:11:40;151575.19;;;1.86;100.00
10127;BME280;13080;42.608;23.362;2024-03-08T05:14:07;151594.56;;;1.94;100.00
10127;BME280;13080;42.608;23.362;2024-03-08T05:16:34;151545.53;;;1.74;100.00
10127;BME280;13080;42.608;23.362;2024-03-08T05:19:01;151571.34;;;1.84;100.00
10127;BME280;13080;42.608;23.362;2024-03-08T05:21:28;151564.91;;;1.82;100.00
10127;BME280;13080;42.608;23.362;2024-03-08T05:23:55;151532.66;;;1.69;100.00
10127;BME280;13080;42.608;23.362;2024-03-08T05:26:22;151512.00;;;1.61;100.00
10127;BME280;13080;42.608;23.362;2024-03-08T05:28:50;151517.16;;;1.63;100.00
10127;BME280;13080;42.608;23.362;2024-03-08T05:31:19;151535.22;;;1.70;100.00
10127;BME280;13080;42.608;23.362;2024-03-08T05:33:47;151527.50;;;1.67;100.00
10127;BME280;13080;42.608;23.362;2024-03-08T05:36:14;151539.09;;;1.72;100.00
10127;BME280;13080;42.608;23.362;2024-03-08T05:38:42;151561.03;;;1.80;100.00
10127;BME280;13080;42.608;23.362;2024-03-08T05:41:09;151558.41;;;1.79;100.00
10127;BME280;13080;42.608;23.362;2024-03-08T05:43:37;151589.41;;;1.92;100.00
10127;BME280;13080;42.608;23.362;2024-03-08T05:46:05;151588.13;;;1.91;100.00
10127;BME280;13080;42.608;23.362;2024-03-08T05:48:32;151577.78;;;1.87;100.00
10127;BME280;13080;42.608;23.362;2024-03-08T05:51:00;151580.34;;;1.88;100.00
10127;BME280;13080;42.608;23.362;2024-03-08T05:53:27;151590.69;;;1.92;100.00
10127;BME280;13080;42.608;23.362;2024-03-08T05:55:57;151597.13;;;1.95;100.00
10127;BME280;13080;42.608;23.362;2024-03-08T05:58:24;151620.34;;;2.04;100.00
10127;BME280;13080;42.608;23.362;2024-03-08T06:00:51;151662.94;;;2.21;100.00
10127;BME280;13080;42.608;23.362;2024-03-08T06:03:19;151662.94;;;2.21;100.00
10127;BME280;13080;42.608;23.362;2024-03-08T06:05:47;151686.16;;;2.30;100.00
10127;BME280;13080;42.608;23.362;2024-03-08T06:08:14;151724.84;;;2.45;100.00
10127;BME280;13080;42.608;23.362;2024-03-08T06:10:41;151683.59;;;2.29;100.00
10127;BME280;13080;42.608;23.362;2024-03-08T06:13:08;151680.97;;;2.28;100.00
10127;BME280;13080;42.608;23.362;2024-03-08T06:15:37;151688.75;;;2.31;100.00
10127;BME280;13080;42.608;23.362;2024-03-08T06:18:04;151684.88;;;2.29;100.00
10127;BME280;13080;42.608;23.362;2024-03-08T06:20:34;151652.59;;;2.17;100.00
10127;BME280;13080;42.608;23.362;2024-03-08T06:23:01;151726.13;;;2.46;100.00
10127;BME280;13080;42.608;23.362;2024-03-08T06:25:28;151702.91;;;2.37;100.00
10127;BME280;13080;42.608;23.362;2024-03-08T06:27:55;151679.69;;;2.27;100.00
10127;BME280;13080;42.608;23.362;2024-03-08T06:30:22;151668.09;;;2.23;100.00
10127;BME280;13080;42.608;23.362;2024-03-08T06:32:49;151673.25;;;2.25;100.00
10127;BME280;13080;42.608;23.362;2024-03-08T06:35:17;151677.13;;;2.26;100.00
10127;BME280;13080;42.608;23.362;2024-03-08T06:37:47;151660.38;;;2.20;100.00
10127;BME280;13080;42.608;23.362;2024-03-08T06:40:14;151653.88;;;2.17;100.00
10127;BME280;13080;42.608;23.362;2024-03-08T06:42:41;151650.03;;;2.16;100.00
10127;BME280;13080;42.608;23.362;2024-03-08T06:45:08;151647.44;;;2.15;100.00
10127;BME280;13080;42.608;23.362;2024-03-08T06:47:35;151641.00;;;2.12;100.00
10127;BME280;13080;42.608;23.362;2024-03-08T06:50:03;151669.38;;;2.23;100.00
10127;BME280;13080;42.608;23.362;2024-03-08T06:52:31;151662.94;;;2.21;100.00
10127;BME280;13080;42.608;23.362;2024-03-08T06:55:00;151634.53;;;2.10;100.00
10127;BME280;13080;42.608;23.362;2024-03-08T06:57:27;151666.81;;;2.22;100.00
10127;BME280;13080;42.608;23.362;2024-03-08T06:59:55;151677.13;;;2.26;100.00
10127;BME280;13080;42.608;23.362;2024-03-08T07:02:22;151701.63;;;2.36;100.00
10127;BME280;13080;42.608;23.362;2024-03-08T07:04:51;151723.59;;;2.45;100.00
10127;BME280;13080;42.608;23.362;2024-03-08T07:07:18;151757.13;;;2.58;100.00
10127;BME280;13080;42.608;23.362;2024-03-08T07:09:46;151767.47;;;2.62;100.00
10127;BME280;13080;42.608;23.362;2024-03-08T07:12:16;151770.03;;;2.63;100.00
10127;BME280;13080;42.608;23.362;2024-03-08T07:14:43;151794.53;;;2.73;100.00
10127;BME280;13080;42.608;23.362;2024-03-08T07:17:11;151794.53;;;2.73;100.00
10127;BME280;13080;42.608;23.362;2024-03-08T07:19:38;151815.22;;;2.81;100.00
10127;BME280;13080;42.608;23.362;2024-03-08T07:22:05;151883.63;;;3.08;100.00
10127;BME280;13080;42.608;23.362;2024-03-08T07:24:35;151899.13;;;3.15;100.00
10127;BME280;13080;42.608;23.362;2024-03-08T07:27:22;151891.34;;;3.11;100.00
10127;BME280;13080;42.608;23.362;2024-03-08T07:29:49;151888.78;;;3.10;100.00
10127;BME280;13080;42.608;23.362;2024-03-08T07:32:16;151856.50;;;2.98;100.00
10127;BME280;13080;42.608;23.362;2024-03-08T07:34:47;151919.75;;;3.23;100.00
10127;BME280;13080;42.608;23.362;2024-03-08T07:37:16;151943.03;;;3.32;100.00
10127;BME280;13080;42.608;23.362;2024-03-08T07:39:43;151970.13;;;3.43;100.00
10127;BME280;13080;42.608;23.362;2024-03-08T07:42:10;151974.00;;;3.44;100.00
10127;BME280;13080;42.608;23.362;2024-03-08T07:44:39;152054.09;;;3.76;98.51
10127;BME280;13080;42.608;23.362;2024-03-08T07:47:06;152002.44;;;3.56;100.00
10127;BME280;13080;42.608;23.362;2024-03-08T07:49:35;151997.25;;;3.53;99.93
10127;BME280;13080;42.608;23.362;2024-03-08T07:52:03;152039.91;;;3.70;99.35
10127;BME280;13080;42.608;23.362;2024-03-08T07:54:32;152016.66;;;3.61;100.00
10127;BME280;13080;42.608;23.362;2024-03-08T07:56:59;152026.94;;;3.65;100.00
10127;BME280;13080;42.608;23.362;2024-03-08T07:59:28;152015.31;;;3.61;99.92
10127;BME280;13080;42.608;23.362;2024-03-08T08:01:57;151989.53;;;3.50;100.00
10127;BME280;13080;42.608;23.362;2024-03-08T08:04:24;151999.88;;;3.54;99.39
10127;BME280;13080;42.608;23.362;2024-03-08T08:06:52;152036.00;;;3.69;98.10
10127;BME280;13080;42.608;23.362;2024-03-08T08:09:20;152021.81;;;3.63;98.18
10127;BME280;13080;42.608;23.362;2024-03-08T08:11:54;152059.25;;;3.78;94.95
10127;BME280;13080;42.608;23.362;2024-03-08T08:14:21;152069.59;;;3.82;96.68
10127;BME280;13080;42.608;23.362;2024-03-08T08:16:48;152082.50;;;3.87;94.47
10127;BME280;13080;42.608;23.362;2024-03-08T08:19:19;152046.34;;;3.73;93.88
10127;BME280;13080;42.608;23.362;2024-03-08T08:21:46;152079.94;;;3.86;93.56
10127;BME280;13080;42.608;23.362;2024-03-08T08:24:13;152074.78;;;3.84;92.86
10127;BME280;13080;42.608;23.362;2024-03-08T08:26:40;152065.72;;;3.81;94.46
10127;BME280;13080;42.608;23.362;2024-03-08T08:29:07;152078.66;;;3.86;95.94
10127;BME280;13080;42.608;23.362;2024-03-08T08:31:34;152126.44;;;4.05;93.31
10127;BME280;13080;42.608;23.362;2024-03-08T08:34:01;152172.97;;;4.23;92.41
10127;BME280;13080;42.608;23.362;2024-03-08T08:36:30;152196.22;;;4.32;95.19
10127;BME280;13080;42.608;23.362;2024-03-08T08:38:57;152237.59;;;4.49;96.49
10127;BME280;13080;42.608;23.362;2024-03-08T08:41:25;152204.00;;;4.35;97.59
10127;BME280;13080;42.608;23.362;2024-03-08T08:43:52;152246.63;;;4.52;95.52
10127;BME280;13080;42.608;23.362;2024-03-08T08:46:19;152319.03;;;4.81;93.90
10127;BME280;13080;42.608;23.362;2024-03-08T08:48:47;152322.94;;;4.83;88.50
10127;BME280;13080;42.608;23.362;2024-03-08T08:51:13;152356.53;;;4.96;91.41
10127;BME280;13080;42.608;23.362;2024-03-08T08:53:42;152397.91;;;5.12;91.01
10127;BME280;13080;42.608;23.362;2024-03-08T08:56:11;152425.09;;;5.23;92.01
10127;BME280;13080;42.608;23.362;2024-03-08T08:58:38;152485.88;;;5.47;86.35
10127;BME280;13080;42.608;23.362;2024-03-08T09:01:06;152454.81;;;5.35;89.53
10127;BME280;13080;42.608;23.362;2024-03-08T09:03:33;152456.09;;;5.35;89.81
10127;BME280;13080;42.608;23.362;2024-03-08T09:06:02;152457.44;;;5.36;88.54
10127;BME280;13080;42.608;23.362;2024-03-08T09:08:29;152474.19;;;5.42;87.52
10127;BME280;13080;42.608;23.362;2024-03-08T09:10:58;152469.06;;;5.40;85.64
10127;BME280;13080;42.608;23.362;2024-03-08T09:13:25;152491.03;;;5.49;86.60
10127;BME280;13080;42.608;23.362;2024-03-08T09:15:52;152546.66;;;5.71;88.11
10127;BME280;13080;42.608;23.362;2024-03-08T09:18:19;152511.72;;;5.57;86.86
10127;BME280;13080;42.608;23.362;2024-03-08T09:20:46;152487.16;;;5.48;87.95
10127;BME280;13080;42.608;23.362;2024-03-08T09:23:13;152467.75;;;5.40;87.80
10127;BME280;13080;42.608;23.362;2024-03-08T09:25:42;152421.19;;;5.21;86.84
10127;BME280;13080;42.608;23.362;2024-03-08T09:28:10;152316.47;;;4.80;91.04
10127;BME280;13080;42.608;23.362;2024-03-08T09:30:38;152326.78;;;4.84;88.19
10127;BME280;13080;42.608;23.362;2024-03-08T09:33:05;152299.66;;;4.73;88.24
10127;BME280;13080;42.608;23.362;2024-03-08T09:35:32;152353.94;;;4.95;89.39
10127;BME280;13080;42.608;23.362;2024-03-08T09:37:59;152307.41;;;4.76;88.02
10127;BME280;13080;42.608;23.362;2024-03-08T09:40:26;152368.19;;;5.00;87.60
10127;BME280;13080;42.608;23.362;2024-03-08T09:42:52;152386.28;;;5.08;86.71
10127;BME280;13080;42.608;23.362;2024-03-08T09:45:22;152480.72;;;5.45;86.03
10127;BME280;13080;42.608;23.362;2024-03-08T09:47:50;152452.25;;;5.34;86.08
10127;BME280;13080;42.608;23.362;2024-03-08T09:50:18;152450.91;;;5.33;85.41
10127;BME280;13080;42.608;23.362;2024-03-08T09:52:47;152436.72;;;5.28;84.21
10127;BME280;13080;42.608;23.362;2024-03-08T09:55:16;152426.38;;;5.24;84.09
10127;BME280;13080;42.608;23.362;2024-03-08T09:57:48;152436.72;;;5.28;82.75
10127;BME280;13080;42.608;23.362;2024-03-08T10:00:30;152474.19;;;5.42;82.48
10127;BME280;13080;42.608;23.362;2024-03-08T10:03:01;152558.31;;;5.76;82.06
10127;BME280;13080;42.608;23.362;2024-03-08T10:05:28;152660.59;;;6.16;84.15
10127;BME280;13080;42.608;23.362;2024-03-08T10:07:55;152782.31;;;6.64;76.48
10127;BME280;13080;42.608;23.362;2024-03-08T10:10:22;152849.66;;;6.91;77.60
10127;BME280;13080;42.608;23.362;2024-03-08T10:12:49;152949.34;;;7.31;75.80
10127;BME280;13080;42.608;23.362;2024-03-08T10:15:16;152858.69;;;6.95;75.12
10127;BME280;13080;42.608;23.362;2024-03-08T10:17:44;152774.56;;;6.61;77.59
10127;BME280;13080;42.608;23.362;2024-03-08T10:20:14;152753.81;;;6.53;73.67
10127;BME280;13080;42.608;23.362;2024-03-08T10:22:41;152744.72;;;6.50;76.30
10127;BME280;13080;42.608;23.362;2024-03-08T10:25:10;152686.50;;;6.27;73.82
10127;BME280;13080;42.608;23.362;2024-03-08T10:27:38;152667.09;;;6.19;79.39
10127;BME280;13080;42.608;23.362;2024-03-08T10:30:06;152721.44;;;6.40;77.12
10127;BME280;13080;42.608;23.362;2024-03-08T10:32:37;152670.94;;;6.20;76.48
10127;BME280;13080;42.608;23.362;2024-03-08T10:35:08;152680.03;;;6.24;78.59
10127;BME280;13080;42.608;23.362;2024-03-08T10:37:41;152650.28;;;6.12;75.54
10127;BME280;13080;42.608;23.362;2024-03-08T10:40:15;152638.63;;;6.08;77.13
10127;BME280;13080;42.608;23.362;2024-03-08T10:42:50;152696.84;;;6.31;76.81
10127;BME280;13080;42.608;23.362;2024-03-08T10:48:23;152783.59;;;6.65;74.81
10127;BME280;13080;42.608;23.362;2024-03-08T10:50:55;152793.94;;;6.69;75.76
10127;BME280;13080;42.608;23.362;2024-03-08T10:53:26;152779.69;;;6.63;74.96
10127;BME280;13080;42.608;23.362;2024-03-08T10:55:56;152709.78;;;6.36;73.66
10127;BME280;13080;42.608;23.362;2024-03-08T10:58:25;152749.91;;;6.52;75.28
10127;BME280;13080;42.608;23.362;2024-03-08T11:00:54;152713.69;;;6.37;73.91
10127;BME280;13080;42.608;23.362;2024-03-08T11:03:43;152727.91;;;6.43;75.55
10127;BME280;13080;42.608;23.362;2024-03-08T11:06:16;152834.09;;;6.85;71.66
10127;BME280;13080;42.608;23.362;2024-03-08T11:08:44;152823.72;;;6.81;73.81
10127;BME280;13080;42.608;23.362;2024-03-08T11:11:24;152849.66;;;6.91;73.69
10127;BME280;13080;42.608;23.362;2024-03-08T11:13:55;152872.97;;;7.00;73.46
10127;BME280;13080;42.608;23.362;2024-03-08T11:16:38;152910.53;;;7.15;72.96
10127;BME280;13080;42.608;23.362;2024-03-08T11:19:24;152863.88;;;6.97;71.31
10127;BME280;13080;42.608;23.362;2024-03-08T11:21:59;152840.56;;;6.87;72.22
10127;BME280;13080;42.608;23.362;2024-03-08T11:24:26;152810.78;;;6.76;72.75
10127;BME280;13080;42.608;23.362;2024-03-08T11:26:57;152878.13;;;7.02;72.26
10127;BME280;13080;42.608;23.362;2024-03-08T11:29:38;152821.16;;;6.80;69.12
10127;BME280;13080;42.608;23.362;2024-03-08T11:32:10;152822.44;;;6.80;68.38
10127;BME280;13080;42.608;23.362;2024-03-08T11:34:40;152849.66;;;6.91;67.44
10127;BME280;13080;42.608;23.362;2024-03-08T11:37:14;152906.63;;;7.14;68.18
10127;BME280;13080;42.608;23.362;2024-03-08T11:39:46;152894.97;;;7.09;71.00
10127;BME280;13080;42.608;23.362;2024-03-08T11:42:14;152906.63;;;7.14;71.52
10127;BME280;13080;42.608;23.362;2024-03-08T11:44:41;152875.53;;;7.01;71.71
10127;BME280;13080;42.608;23.362;2024-03-08T11:47:10;152863.88;;;6.97;70.65
10127;BME280;13080;42.608;23.362;2024-03-08T11:49:37;152853.50;;;6.93;71.65
10127;BME280;13080;42.608;23.362;2024-03-08T11:52:04;152870.34;;;6.99;70.14
10127;BME280;13080;42.608;23.362;2024-03-08T11:54:33;152871.66;;;7.00;70.21
10127;BME280;13080;42.608;23.362;2024-03-08T11:57:01;152902.72;;;7.12;70.21
10127;BME280;13080;42.608;23.362;2024-03-08T11:59:28;152958.44;;;7.34;71.67
10127;BME280;13080;42.608;23.362;2024-03-08T12:02:00;152970.09;;;7.39;70.15
10127;BME280;13080;42.608;23.362;2024-03-08T12:04:27;152959.72;;;7.35;68.54
10127;BME280;13080;42.608;23.362;2024-03-08T12:06:54;152879.41;;;7.03;69.65
10127;BME280;13080;42.608;23.362;2024-03-08T12:09:21;152814.69;;;6.77;72.65
10127;BME280;13080;42.608;23.362;2024-03-08T12:11:50;152773.22;;;6.61;70.93
10127;BME280;13080;42.608;23.362;2024-03-08T12:14:17;152786.19;;;6.66;71.09
10127;BME280;13080;42.608;23.362;2024-03-08T12:16:44;152800.41;;;6.72;70.39
10127;BME280;13080;42.608;23.362;2024-03-08T12:19:12;152747.34;;;6.51;72.49
10127;BME280;13080;42.608;23.362;2024-03-08T12:21:39;152764.19;;;6.57;69.96
10127;BME280;13080;42.608;23.362;2024-03-08T12:24:15;152737.00;;;6.47;71.00
10127;BME280;13080;42.608;23.362;2024-03-08T12:26:45;152740.88;;;6.48;71.46
10127;BME280;13080;42.608;23.362;2024-03-08T12:29:20;152764.19;;;6.57;73.28
10127;BME280;13080;42.608;23.362;2024-03-08T12:31:48;152804.31;;;6.73;72.63
10127;BME280;13080;42.608;23.362;2024-03-08T12:34:17;152812.06;;;6.76;71.58
10127;BME280;13080;42.608;23.362;2024-03-08T12:36:45;152788.78;;;6.67;71.09
10127;BME280;13080;42.608;23.362;2024-03-08T12:39:16;152822.44;;;6.80;71.25
10127;BME280;13080;42.608;23.362;2024-03-08T12:41:43;152843.19;;;6.89;69.74
10127;BME280;13080;42.608;23.362;2024-03-08T12:44:12;152887.19;;;7.06;66.52
10127;BME280;13080;42.608;23.362;2024-03-08T12:46:40;152836.66;;;6.86;69.18
10127;BME280;13080;42.608;23.362;2024-03-08T12:49:09;152819.88;;;6.79;68.47
10127;BME280;13080;42.608;23.362;2024-03-08T12:51:38;152831.53;;;6.84;69.80